TimeEST,TemperatureF,Dew PointF,Humidity,Sea Level PressureIn,VisibilityMPH,Wind Direction,Wind SpeedMPH,Gust SpeedMPH,PrecipitationIn,Events,Conditions,WindDirDegrees,DateUTC
12:15 AM,33.8,21.2,60,30.09,10.0,NNE,5.8,-,N/A,,Clear,20,2013-02-25 05:15:00
12:35 AM,33.8,21.2,60,30.10,10.0,North,9.2,-,N/A,,Clear,360,2013-02-25 05:35:00
12:55 AM,33.8,19.4,56,30.10,10.0,NNE,5.8,-,N/A,,Clear,20,2013-02-25 05:55:00
1:15 AM,32.0,19.4,60,30.11,10.0,NE,6.9,-,N/A,,Clear,40,2013-02-25 06:15:00
1:35 AM,32.0,17.6,55,30.11,10.0,North,6.9,-,N/A,,Clear,10,2013-02-25 06:35:00
1:55 AM,32.0,17.6,55,30.11,10.0,North,5.8,-,N/A,,Clear,10,2013-02-25 06:55:00
2:15 AM,32.0,17.6,55,30.11,10.0,NNE,4.6,-,N/A,,Clear,20,2013-02-25 07:15:00
2:35 AM,30.2,17.6,60,30.11,10.0,North,8.1,-,N/A,,Clear,350,2013-02-25 07:35:00
2:55 AM,30.2,17.6,60,30.11,10.0,NNW,4.6,-,N/A,,Clear,330,2013-02-25 07:55:00
3:15 AM,30.2,15.8,55,30.11,10.0,WNW,3.5,-,N/A,,Clear,300,2013-02-25 08:15:00
3:35 AM,30.2,15.8,55,30.12,10.0,Calm,Calm,-,N/A,,Clear,0,2013-02-25 08:35:00
3:55 AM,30.2,15.8,55,30.12,10.0,North,3.5,-,N/A,,Clear,350,2013-02-25 08:55:00
4:15 AM,30.2,15.8,55,30.11,10.0,North,3.5,-,N/A,,Clear,360,2013-02-25 09:15:00
4:35 AM,28.4,17.6,64,30.13,10.0,Calm,Calm,-,N/A,,Clear,0,2013-02-25 09:35:00
4:55 AM,26.6,17.6,69,30.15,10.0,Calm,Calm,-,N/A,,Clear,0,2013-02-25 09:55:00
5:15 AM,24.8,17.6,74,30.14,10.0,Calm,Calm,-,N/A,,Clear,0,2013-02-25 10:15:00
5:35 AM,23.0,17.6,80,30.15,10.0,Calm,Calm,-,N/A,,Clear,0,2013-02-25 10:35:00
5:55 AM,24.8,17.6,74,30.16,10.0,WNW,3.5,-,N/A,,Clear,290,2013-02-25 10:55:00
6:15 AM,23.0,17.6,80,30.15,10.0,Calm,Calm,-,N/A,,Clear,0,2013-02-25 11:15:00
6:35 AM,24.8,17.6,74,30.16,10.0,NNW,3.5,-,N/A,,Clear,340,2013-02-25 11:35:00
6:55 AM,28.4,17.6,64,30.16,10.0,North,3.5,-,N/A,,Clear,360,2013-02-25 11:55:00
7:15 AM,28.4,17.6,64,30.15,10.0,North,4.6,-,N/A,,Clear,350,2013-02-25 12:15:00
7:35 AM,28.4,17.6,64,30.16,10.0,North,4.6,-,N/A,,Clear,350,2013-02-25 12:35:00
7:55 AM,30.2,19.4,64,30.17,10.0,North,3.5,-,N/A,,Clear,10,2013-02-25 12:55:00
8:15 AM,30.2,19.4,64,30.17,10.0,North,5.8,-,N/A,,Clear,360,2013-02-25 13:15:00
8:35 AM,32.0,19.4,60,30.18,10.0,North,6.9,-,N/A,,Clear,10,2013-02-25 13:35:00
8:55 AM,33.8,19.4,56,30.19,10.0,North,8.1,-,N/A,,Clear,360,2013-02-25 13:55:00
9:15 AM,35.6,19.4,52,30.20,10.0,North,6.9,-,N/A,,Clear,350,2013-02-25 14:15:00
9:35 AM,35.6,21.2,56,30.20,10.0,North,9.2,-,N/A,,Clear,360,2013-02-25 14:35:00
9:55 AM,37.4,19.4,48,30.20,10.0,NNE,9.2,-,N/A,,Clear,30,2013-02-25 14:55:00
10:15 AM,37.4,19.4,48,30.20,10.0,NNE,8.1,-,N/A,,Clear,20,2013-02-25 15:15:00
10:35 AM,39.2,19.4,45,30.20,10.0,North,6.9,-,N/A,,Clear,350,2013-02-25 15:35:00
10:55 AM,39.2,19.4,45,30.21,10.0,NNW,5.8,-,N/A,,Clear,340,2013-02-25 15:55:00
11:15 AM,39.2,19.4,45,30.21,10.0,NNE,4.6,-,N/A,,Clear,30,2013-02-25 16:15:00
11:35 AM,41.0,19.4,42,30.22,10.0,North,5.8,-,N/A,,Clear,350,2013-02-25 16:35:00
11:55 AM,41.0,17.6,39,30.20,10.0,ENE,4.6,-,N/A,,Clear,70,2013-02-25 16:55:00
12:15 PM,42.8,19.4,39,30.19,10.0,North,3.5,-,N/A,,Clear,10,2013-02-25 17:15:00
12:35 PM,42.8,17.6,36,30.19,10.0,Calm,Calm,-,N/A,,Clear,0,2013-02-25 17:35:00
12:55 PM,42.8,17.6,36,30.18,10.0,Calm,Calm,-,N/A,,Clear,0,2013-02-25 17:55:00
1:15 PM,42.8,17.6,36,30.17,10.0,Calm,Calm,-,N/A,,Clear,0,2013-02-25 18:15:00
1:35 PM,44.6,17.6,34,30.16,10.0,Calm,Calm,-,N/A,,Clear,0,2013-02-25 18:35:00
1:55 PM,44.6,19.4,37,30.15,10.0,NNW,3.5,-,N/A,,Clear,330,2013-02-25 18:55:00
2:15 PM,44.6,19.4,37,30.15,10.0,NE,5.8,-,N/A,,Clear,40,2013-02-25 19:15:00
2:35 PM,44.6,17.6,34,30.15,10.0,Calm,Calm,-,N/A,,Clear,0,2013-02-25 19:35:00
2:55 PM,44.6,19.4,37,30.14,10.0,ENE,3.5,-,N/A,,Clear,60,2013-02-25 19:55:00
3:15 PM,44.6,19.4,37,30.14,10.0,Calm,Calm,-,N/A,,Clear,0,2013-02-25 20:15:00
3:35 PM,44.6,19.4,37,30.15,10.0,Calm,Calm,-,N/A,,Clear,0,2013-02-25 20:35:00
3:55 PM,44.6,19.4,37,30.15,10.0,Calm,Calm,-,N/A,,Clear,0,2013-02-25 20:55:00
4:15 PM,44.6,19.4,37,30.15,10.0,East,3.5,-,N/A,,Clear,100,2013-02-25 21:15:00
4:35 PM,44.6,19.4,37,30.14,10.0,Calm,Calm,-,N/A,,Clear,0,2013-02-25 21:35:00
4:55 PM,44.6,19.4,37,30.15,10.0,SE,3.5,-,N/A,,Clear,140,2013-02-25 21:55:00
5:15 PM,44.6,19.4,37,30.15,10.0,Calm,Calm,-,N/A,,Clear,0,2013-02-25 22:15:00
5:35 PM,42.8,19.4,39,30.15,10.0,Calm,Calm,-,N/A,,Clear,0,2013-02-25 22:35:00
5:55 PM,39.2,24.8,56,30.15,10.0,Calm,Calm,-,N/A,,Clear,0,2013-02-25 22:55:00
6:15 PM,35.6,24.8,65,30.16,10.0,Calm,Calm,-,N/A,,Clear,0,2013-02-25 23:15:00
6:35 PM,33.8,21.2,60,30.17,10.0,Calm,Calm,-,N/A,,Clear,0,2013-02-25 23:35:00
6:55 PM,33.8,21.2,60,30.18,10.0,Calm,Calm,-,N/A,,Clear,0,2013-02-25 23:55:00
7:15 PM,32.0,19.4,60,30.18,10.0,Calm,Calm,-,N/A,,Clear,0,2013-02-26 00:15:00
7:35 PM,30.2,19.4,64,30.18,10.0,Calm,Calm,-,N/A,,Clear,0,2013-02-26 00:35:00
7:55 PM,28.4,19.4,69,30.19,10.0,Calm,Calm,-,N/A,,Clear,0,2013-02-26 00:55:00
8:15 PM,30.2,19.4,64,30.19,10.0,Calm,Calm,-,N/A,,Clear,0,2013-02-26 01:15:00
8:35 PM,28.4,19.4,69,30.18,10.0,Calm,Calm,-,N/A,,Clear,0,2013-02-26 01:35:00
8:55 PM,28.4,19.4,69,30.18,10.0,Calm,Calm,-,N/A,,Clear,0,2013-02-26 01:55:00
9:15 PM,28.4,19.4,69,30.17,10.0,Calm,Calm,-,N/A,,Clear,0,2013-02-26 02:15:00
9:35 PM,28.4,19.4,69,30.19,10.0,Calm,Calm,-,N/A,,Clear,0,2013-02-26 02:35:00
9:55 PM,28.4,19.4,69,30.18,10.0,Calm,Calm,-,N/A,,Clear,0,2013-02-26 02:55:00
10:15 PM,28.4,19.4,69,30.17,10.0,Calm,Calm,-,N/A,,Clear,0,2013-02-26 03:15:00
10:35 PM,28.4,19.4,69,30.16,10.0,Calm,Calm,-,N/A,,Clear,0,2013-02-26 03:35:00
10:55 PM,28.4,19.4,69,30.16,10.0,Calm,Calm,-,N/A,,Clear,0,2013-02-26 03:55:00
11:15 PM,26.6,19.4,74,30.18,10.0,Calm,Calm,-,N/A,,Clear,0,2013-02-26 04:15:00
11:35 PM,28.4,19.4,69,30.18,10.0,Calm,Calm,-,N/A,,Clear,0,2013-02-26 04:35:00
11:55 PM,24.8,19.4,80,30.17,10.0,Calm,Calm,-,N/A,,Clear,0,2013-02-26 04:55:00